Time;durP1;ratioP1;P1;durP2;ratioP2;P2;SDS_P1;SDS_P2;PMS_P1;PMS_P2;Temp;Humidity;BMP_temperature;BMP_pressure;BME280_temperature;BME280_humidity;BME280_pressure;Samples;Min_cycle;Max_cycle;Signal;HPM_P1;HPM_P2
2022/01/06 00:02:23;;;;;;;;;18.00;16.67;;;;;;;;5132195;27;47102;-88
2022/01/06 00:04:48;;;;;;;;;23.00;21.33;;;;;;;;5132820;27;45206;-87
2022/01/06 00:07:13;;;;;;;;;20.33;17.67;;;;;;;;5132893;27;45060;-87
2022/01/06 00:09:38;;;;;;;;;14.33;12.67;;;;;;;;5132366;27;45307;-86
2022/01/06 00:12:05;;;;;;;;;21.00;18.33;;;;;;;;5132786;27;47138;-87
2022/01/06 00:14:52;;;;;;;;;18.00;16.50;;;;;;;;5132048;27;45355;-89
2022/01/06 00:17:36;;;;;;;;;23.00;20.00;;;;;;;;5133136;27;45106;-86
2022/01/06 00:25:30;;;;;;;;;22.50;21.00;;;;;;;;5151224;27;45282;-87
2022/01/06 00:27:55;;;;;;;;;29.00;26.00;;;;;;;;5132341;27;45048;-87
2022/01/06 00:30:20;;;;;;;;;23.67;21.00;;;;;;;;5132616;27;45198;-86
2022/01/06 00:32:46;;;;;;;;;24.33;22.33;;;;;;;;5132402;27;47225;-87
2022/01/06 00:35:11;;;;;;;;;18.33;17.67;;;;;;;;5131514;27;45152;-88
2022/01/06 00:37:36;;;;;;;;;21.00;21.00;;;;;;;;5151822;27;44980;-87
2022/01/06 00:40:02;;;;;;;;;20.67;17.67;;;;;;;;5132542;27;45180;-87
2022/01/06 00:42:27;;;;;;;;;21.50;18.25;;;;;;;;5131280;27;47026;-86
2022/01/06 00:44:52;;;;;;;;;21.33;17.67;;;;;;;;5132196;27;45009;-88
2022/01/06 00:47:20;;;;;;;;;21.00;20.00;;;;;;;;5132161;27;45258;-87
2022/01/06 00:49:46;;;;;;;;;21.50;19.75;;;;;;;;5131985;27;45185;-86
2022/01/06 00:52:11;;;;;;;;;19.25;15.75;;;;;;;;5131045;27;46824;-87
2022/01/06 00:54:36;;;;;;;;;17.00;16.67;;;;;;;;5132052;27;45239;-86
2022/01/06 00:57:01;;;;;;;;;23.00;19.33;;;;;;;;5132319;27;45336;-86
2022/01/06 00:59:26;;;;;;;;;21.00;18.00;;;;;;;;5132372;27;45255;-86
2022/01/06 01:01:52;;;;;;;;;20.67;18.00;;;;;;;;5131726;27;46839;-86
2022/01/06 01:04:17;;;;;;;;;21.33;18.33;;;;;;;;5132454;27;45083;-87
2022/01/06 01:06:42;;;;;;;;;18.00;17.33;;;;;;;;5150565;27;45206;-86
2022/01/06 01:09:07;;;;;;;;;19.00;17.67;;;;;;;;5132328;27;45244;-87
2022/01/06 01:11:33;;;;;;;;;17.33;16.33;;;;;;;;5131623;27;47456;-86
2022/01/06 01:14:07;;;;;;;;;20.33;18.67;;;;;;;;5130327;27;45184;-87
2022/01/06 01:16:33;;;;;;;;;21.00;19.25;;;;;;;;5131954;27;45248;-85
2022/01/06 01:19:00;;;;;;;;;21.50;19.00;;;;;;;;5131437;27;45016;-87
2022/01/06 01:21:26;;;;;;;;;20.75;20.00;;;;;;;;5132460;27;47739;-87
2022/01/06 01:23:53;;;;;;;;;35.50;32.00;;;;;;;;5130220;27;45230;-88
2022/01/06 01:26:18;;;;;;;;;28.75;25.00;;;;;;;;5131765;27;45291;-87
2022/01/06 01:28:45;;;;;;;;;29.50;27.75;;;;;;;;5131164;27;45169;-86
2022/01/06 01:33:43;;;;;;;;;24.00;23.50;;;;;;;;5150358;27;45306;-87
2022/01/06 01:36:11;;;;;;;;;27.50;25.75;;;;;;;;5131670;27;45162;-87
2022/01/06 01:38:37;;;;;;;;;24.25;21.00;;;;;;;;5131099;27;45179;-86
2022/01/06 01:41:06;;;;;;;;;20.75;17.25;;;;;;;;5130128;27;47438;-87
2022/01/06 01:43:31;;;;;;;;;19.25;18.25;;;;;;;;5130669;27;45219;-87
2022/01/06 01:45:58;;;;;;;;;22.33;21.00;;;;;;;;5131489;27;45094;-87
2022/01/06 01:48:33;;;;;;;;;16.50;16.50;;;;;;;;5127723;27;45159;-87
2022/01/06 01:50:58;;;;;;;;;19.50;17.75;;;;;;;;5127629;27;46992;-88
2022/01/06 01:53:23;;;;;;;;;16.67;16.00;;;;;;;;5127340;27;45271;-87
2022/01/06 01:55:50;;;;;;;;;18.33;17.33;;;;;;;;5127574;27;45257;-88
2022/01/06 01:58:16;;;;;;;;;19.50;19.25;;;;;;;;5127953;27;45410;-86
2022/01/06 02:00:41;;;;;;;;;22.00;19.50;;;;;;;;5127521;27;47664;-87
2022/01/06 02:03:06;;;;;;;;;16.67;13.67;;;;;;;;5129168;27;45129;-88
2022/01/06 02:05:32;;;;;;;;;16.25;13.50;;;;;;;;5131502;27;45186;-87
2022/01/06 02:08:01;;;;;;;;;16.00;16.00;;;;;;;;5131342;27;45368;-86
2022/01/06 02:10:27;;;;;;;;;16.25;16.25;;;;;;;;5131249;27;48010;-85
2022/01/06 02:12:55;;;;;;;;;18.50;16.50;;;;;;;;5130927;27;45230;-87
2022/01/06 02:15:21;;;;;;;;;19.75;16.75;;;;;;;;5132265;27;45275;-87
2022/01/06 02:17:46;;;;;;;;;16.00;14.00;;;;;;;;5132850;27;45361;-86
2022/01/06 02:20:13;;;;;;;;;20.25;17.00;;;;;;;;5130210;27;47152;-86
2022/01/06 02:22:39;;;;;;;;;17.25;14.75;;;;;;;;5131966;27;45229;-87
2022/01/06 02:25:12;;;;;;;;;23.75;17.75;;;;;;;;5130622;27;45182;-87
2022/01/06 02:27:37;;;;;;;;;16.50;13.75;;;;;;;;5131398;27;45214;-86
2022/01/06 02:30:03;;;;;;;;;21.00;18.33;;;;;;;;5130825;27;47720;-87
2022/01/06 02:32:28;;;;;;;;;20.25;19.00;;;;;;;;5131075;27;45223;-87
2022/01/06 02:34:54;;;;;;;;;19.33;15.33;;;;;;;;5130681;27;44990;-86
2022/01/06 02:37:19;;;;;;;;;23.67;16.00;;;;;;;;5130396;27;45586;-87
2022/01/06 02:39:44;;;;;;;;;13.67;12.00;;;;;;;;5130639;27;47207;-86
2022/01/06 02:42:10;;;;;;;;;17.33;15.00;;;;;;;;5130744;27;45103;-85
2022/01/06 02:44:38;;;;;;;;;16.25;16.25;;;;;;;;5130685;27;45133;-86
2022/01/06 02:47:03;;;;;;;;;18.25;17.25;;;;;;;;5133701;27;45334;-87
2022/01/06 02:49:29;;;;;;;;;21.00;17.00;;;;;;;;5133454;27;46739;-87
2022/01/06 02:51:54;;;;;;;;;16.67;16.67;;;;;;;;5134008;27;45028;-86
2022/01/06 02:54:20;;;;;;;;;21.33;20.00;;;;;;;;5133626;27;45131;-87
2022/01/06 02:56:46;;;;;;;;;18.25;17.50;;;;;;;;5133650;27;45298;-87
2022/01/06 02:59:11;;;;;;;;;20.33;19.33;;;;;;;;5134178;27;47286;-88
2022/01/06 03:01:37;;;;;;;;;17.00;16.00;;;;;;;;5133680;27;45626;-86
2022/01/06 03:04:02;;;;;;;;;18.25;17.50;;;;;;;;5133646;27;45198;-87
2022/01/06 03:06:27;;;;;;;;;17.00;16.33;;;;;;;;5134183;27;45114;-88
2022/01/06 03:08:52;;;;;;;;;19.67;17.67;;;;;;;;5133382;27;47314;-86
2022/01/06 03:11:25;;;;;;;;;16.67;16.00;;;;;;;;5133993;27;45266;-87
2022/01/06 03:13:50;;;;;;;;;16.75;16.75;;;;;;;;5117173;27;45364;-86
2022/01/06 03:16:15;;;;;;;;;21.00;18.00;;;;;;;;5152168;27;45177;-87
2022/01/06 03:18:40;;;;;;;;;16.67;16.67;;;;;;;;5133265;27;47288;-87
2022/01/06 03:21:06;;;;;;;;;16.67;16.33;;;;;;;;5133434;27;45484;-87
2022/01/06 03:23:31;;;;;;;;;16.33;16.33;;;;;;;;5133590;27;45180;-86
2022/01/06 03:25:59;;;;;;;;;17.67;17.33;;;;;;;;5133193;27;45039;-87
2022/01/06 03:28:24;;;;;;;;;4.50;4.25;;;;;;;;5133852;27;46905;-87
2022/01/06 03:30:49;;;;;;;;;16.00;16.00;;;;;;;;5133720;27;45208;-86
2022/01/06 03:33:15;;;;;;;;;17.00;16.67;;;;;;;;5133026;27;45172;-87
2022/01/06 03:38:15;;;;;;;;;21.00;19.25;;;;;;;;6170651;22;47369;-85
2022/01/06 03:40:40;;;;;;;;;20.00;18.67;;;;;;;;4985714;28;46117;-86
2022/01/06 03:43:06;;;;;;;;;21.67;17.00;;;;;;;;5019668;28;45076;-86
2022/01/06 03:45:32;;;;;;;;;14.25;14.25;;;;;;;;5029106;28;45360;-86
2022/01/06 03:47:58;;;;;;;;;10.50;10.00;;;;;;;;5012142;28;47931;-86
2022/01/06 03:50:23;;;;;;;;;16.33;15.00;;;;;;;;5011948;28;45009;-86
2022/01/06 03:52:48;;;;;;;;;18.33;16.67;;;;;;;;5019220;28;45033;-85
2022/01/06 03:55:15;;;;;;;;;19.00;17.67;;;;;;;;5015741;28;45197;-86
2022/01/06 03:57:40;;;;;;;;;20.75;19.75;;;;;;;;5011584;28;47319;-85
2022/01/06 04:00:08;;;;;;;;;16.67;16.00;;;;;;;;5025594;28;45278;-85
2022/01/06 04:02:34;;;;;;;;;18.25;17.00;;;;;;;;5011904;28;45156;-86
2022/01/06 04:05:00;;;;;;;;;18.75;17.50;;;;;;;;5021493;28;45139;-87
2022/01/06 04:07:25;;;;;;;;;20.50;17.50;;;;;;;;5023733;28;47354;-86
2022/01/06 04:09:50;;;;;;;;;20.33;19.33;;;;;;;;5011646;28;45085;-86
2022/01/06 04:12:15;;;;;;;;;17.00;16.33;;;;;;;;5012328;28;45070;-86
2022/01/06 04:14:41;;;;;;;;;17.00;16.33;;;;;;;;5011985;28;45043;-87
2022/01/06 04:17:07;;;;;;;;;17.67;17.00;;;;;;;;5023389;28;47001;-87
2022/01/06 04:19:36;;;;;;;;;19.75;18.00;;;;;;;;5017975;28;45554;-86
2022/01/06 04:22:02;;;;;;;;;19.00;14.75;;;;;;;;5026236;28;45209;-86
2022/01/06 04:24:27;;;;;;;;;18.50;16.00;;;;;;;;5017327;28;45242;-86
2022/01/06 04:26:53;;;;;;;;;14.00;14.00;;;;;;;;5021816;28;47374;-87
2022/01/06 04:29:18;;;;;;;;;20.25;17.75;;;;;;;;5019679;28;45009;-86
2022/01/06 04:31:43;;;;;;;;;20.67;18.00;;;;;;;;5022585;28;45359;-86
2022/01/06 04:34:08;;;;;;;;;16.00;15.33;;;;;;;;5021723;28;44879;-85
2022/01/06 04:36:33;;;;;;;;;15.33;15.33;;;;;;;;5020791;28;47532;-86
2022/01/06 04:39:02;;;;;;;;;24.33;22.67;;;;;;;;5019021;28;45136;-88
2022/01/06 04:41:27;;;;;;;;;19.75;18.00;;;;;;;;5027511;28;45311;-86
2022/01/06 04:43:53;;;;;;;;;19.00;18.33;;;;;;;;5012356;28;45337;-86
2022/01/06 04:46:19;;;;;;;;;15.33;15.00;;;;;;;;5029153;28;45329;-86
2022/01/06 04:48:44;;;;;;;;;19.00;14.25;;;;;;;;5028412;28;45602;-86
2022/01/06 04:51:09;;;;;;;;;22.67;21.00;;;;;;;;5019654;28;45135;-88
2022/01/06 04:53:35;;;;;;;;;16.33;14.00;;;;;;;;5012049;28;45373;-87
2022/01/06 04:56:00;;;;;;;;;15.33;13.33;;;;;;;;5011773;28;47687;-86
2022/01/06 04:58:26;;;;;;;;;18.25;16.75;;;;;;;;5025654;28;45123;-88
2022/01/06 05:00:51;;;;;;;;;14.50;12.75;;;;;;;;5012137;28;45071;-87
2022/01/06 05:03:17;;;;;;;;;18.25;15.75;;;;;;;;5025812;28;45056;-87
2022/01/06 05:05:42;;;;;;;;;16.50;16.25;;;;;;;;5011639;28;47515;-86
2022/01/06 05:08:07;;;;;;;;;24.00;21.00;;;;;;;;5025691;28;45295;-87
2022/01/06 05:10:33;;;;;;;;;21.33;17.67;;;;;;;;5011146;28;45224;-88
2022/01/06 05:12:58;;;;;;;;;20.00;16.33;;;;;;;;5028199;28;45145;-86
2022/01/06 05:15:23;;;;;;;;;17.00;16.67;;;;;;;;5022189;28;47548;-86
2022/01/06 05:17:48;;;;;;;;;17.33;16.67;;;;;;;;5019844;28;45485;-86
2022/01/06 05:20:14;;;;;;;;;18.25;16.50;;;;;;;;5027947;28;45237;-85
2022/01/06 05:22:44;;;;;;;;;16.33;14.00;;;;;;;;5012339;28;45034;-86
2022/01/06 05:25:10;;;;;;;;;16.25;14.25;;;;;;;;5010257;28;47582;-85
2022/01/06 05:27:35;;;;;;;;;21.25;20.25;;;;;;;;5002672;28;45440;-86
2022/01/06 05:30:01;;;;;;;;;10.67;9.33;;;;;;;;5020631;28;45299;-86
2022/01/06 05:32:26;;;;;;;;;13.67;13.33;;;;;;;;5014537;28;45116;-85
2022/01/06 05:34:51;;;;;;;;;20.00;19.00;;;;;;;;5026476;28;47294;-85
2022/01/06 05:37:16;;;;;;;;;19.33;17.67;;;;;;;;5024651;28;45448;-85
2022/01/06 05:39:41;;;;;;;;;19.33;17.33;;;;;;;;5013108;28;45154;-85
2022/01/06 05:42:07;;;;;;;;;25.00;17.00;;;;;;;;5021582;28;45211;-87
2022/01/06 05:44:34;;;;;;;;;18.25;15.25;;;;;;;;5030590;28;45452;-86
2022/01/06 05:46:59;;;;;;;;;20.50;20.00;;;;;;;;5014273;28;45503;-85
2022/01/06 05:49:24;;;;;;;;;16.00;14.67;;;;;;;;5019721;28;45335;-86
2022/01/06 05:51:49;;;;;;;;;17.00;16.33;;;;;;;;5020395;28;45294;-88
2022/01/06 05:54:15;;;;;;;;;16.33;14.00;;;;;;;;5025627;28;47315;-85
2022/01/06 05:56:40;;;;;;;;;19.67;15.67;;;;;;;;5013194;28;45185;-86
2022/01/06 05:59:05;;;;;;;;;15.67;15.33;;;;;;;;5013438;28;45418;-88
2022/01/06 06:01:30;;;;;;;;;19.67;16.67;;;;;;;;5013705;28;45177;-85
2022/01/06 06:03:55;;;;;;;;;20.00;20.00;;;;;;;;5012075;28;47247;-85
2022/01/06 06:06:21;;;;;;;;;17.67;15.33;;;;;;;;5028450;28;45155;-85
2022/01/06 06:08:46;;;;;;;;;17.25;15.25;;;;;;;;5026207;28;45006;-86
2022/01/06 06:11:11;;;;;;;;;18.33;17.00;;;;;;;;5013593;28;45308;-85
2022/01/06 06:13:37;;;;;;;;;19.00;16.33;;;;;;;;5019114;28;47158;-85
2022/01/06 06:16:02;;;;;;;;;19.00;17.33;;;;;;;;5015179;28;45181;-85
2022/01/06 06:18:27;;;;;;;;;28.25;24.75;;;;;;;;5021131;28;45172;-84
2022/01/06 06:20:53;;;;;;;;;20.00;19.67;;;;;;;;5025616;28;45159;-85
2022/01/06 06:23:18;;;;;;;;;18.33;16.67;;;;;;;;5013218;28;46823;-85
2022/01/06 06:25:43;;;;;;;;;20.75;18.75;;;;;;;;5025654;28;45071;-86
2022/01/06 06:28:08;;;;;;;;;22.33;21.67;;;;;;;;5019680;28;45167;-87
2022/01/06 06:30:34;;;;;;;;;25.50;23.75;;;;;;;;5028555;28;45231;-84
2022/01/06 06:33:02;;;;;;;;;20.00;18.25;;;;;;;;5016323;28;47400;-88
2022/01/06 06:35:28;;;;;;;;;24.75;21.00;;;;;;;;5030134;28;45528;-87
2022/01/06 06:37:53;;;;;;;;;59.00;49.00;;;;;;;;5015092;28;45317;-86
2022/01/06 06:40:22;;;;;;;;;61.67;48.00;;;;;;;;5021687;28;45301;-87
2022/01/06 06:42:47;;;;;;;;;51.00;43.75;;;;;;;;5013131;28;47725;-86
2022/01/06 06:45:13;;;;;;;;;41.00;38.00;;;;;;;;5012586;28;45206;-87
2022/01/06 06:47:38;;;;;;;;;35.67;29.67;;;;;;;;5013818;28;45177;-87
2022/01/06 06:50:03;;;;;;;;;35.33;31.33;;;;;;;;5029667;28;45230;-87
2022/01/06 06:52:29;;;;;;;;;25.50;22.50;;;;;;;;5029827;28;46411;-87
2022/01/06 06:54:54;;;;;;;;;32.67;32.33;;;;;;;;5027530;28;45155;-87
2022/01/06 06:57:19;;;;;;;;;29.67;28.67;;;;;;;;5012564;28;45120;-85
2022/01/06 06:59:45;;;;;;;;;16.00;13.25;;;;;;;;5028459;28;45685;-86
2022/01/06 07:02:10;;;;;;;;;32.67;30.00;;;;;;;;5013885;28;48022;-86
2022/01/06 07:04:35;;;;;;;;;30.67;28.33;;;;;;;;5009242;28;45205;-86
2022/01/06 07:07:00;;;;;;;;;26.33;26.00;;;;;;;;5011228;28;46434;-87
2022/01/06 07:09:26;;;;;;;;;26.00;24.33;;;;;;;;5012844;28;45158;-86
2022/01/06 07:11:51;;;;;;;;;26.00;25.00;;;;;;;;5013156;28;47505;-88
2022/01/06 07:14:16;;;;;;;;;30.67;29.00;;;;;;;;5012205;28;45040;-86
2022/01/06 07:16:41;;;;;;;;;25.67;24.00;;;;;;;;5029744;28;45147;-87
2022/01/06 07:19:06;;;;;;;;;27.33;25.33;;;;;;;;5021902;28;45205;-87
2022/01/06 07:21:32;;;;;;;;;23.33;22.00;;;;;;;;5011776;28;47111;-85
2022/01/06 07:23:57;;;;;;;;;28.00;25.67;;;;;;;;5012980;28;45448;-85
2022/01/06 07:26:22;;;;;;;;;28.25;25.25;;;;;;;;5020188;28;45365;-88
2022/01/06 07:28:48;;;;;;;;;28.33;25.33;;;;;;;;5015730;28;45238;-87
2022/01/06 07:31:13;;;;;;;;;28.00;24.67;;;;;;;;5020077;28;47259;-84
2022/01/06 07:33:38;;;;;;;;;27.25;23.50;;;;;;;;5014178;28;45467;-85
2022/01/06 07:36:04;;;;;;;;;29.33;26.00;;;;;;;;5016122;28;45044;-86
2022/01/06 07:38:29;;;;;;;;;26.75;23.50;;;;;;;;5014744;28;45243;-86
2022/01/06 07:40:55;;;;;;;;;23.33;21.33;;;;;;;;5010484;28;47160;-86
2022/01/06 07:43:20;;;;;;;;;27.00;23.75;;;;;;;;5012397;28;45174;-88
2022/01/06 07:45:46;;;;;;;;;23.75;23.50;;;;;;;;5011639;28;45255;-87
2022/01/06 07:48:24;;;;;;;;;25.25;24.50;;;;;;;;5012387;28;45022;-87
2022/01/06 07:50:50;;;;;;;;;34.75;31.25;;;;;;;;5028156;28;47488;-90
2022/01/06 07:53:15;;;;;;;;;35.67;32.00;;;;;;;;5028203;28;45103;-88
2022/01/06 07:55:40;;;;;;;;;25.33;23.00;;;;;;;;5018935;28;45625;-88
2022/01/06 07:58:05;;;;;;;;;23.00;21.67;;;;;;;;5008290;28;45491;-86
2022/01/06 08:00:31;;;;;;;;;24.75;23.00;;;;;;;;5009980;28;47824;-87
2022/01/06 08:02:56;;;;;;;;;24.33;23.00;;;;;;;;5010028;28;45781;-88
2022/01/06 08:05:24;;;;;;;;;23.67;23.67;;;;;;;;5009679;28;45672;-87
2022/01/06 08:07:49;;;;;;;;;30.25;28.75;;;;;;;;5024091;28;45389;-86
2022/01/06 08:10:17;;;;;;;;;29.00;27.33;;;;;;;;5014131;28;45579;-88
2022/01/06 08:12:42;;;;;;;;;26.00;24.25;;;;;;;;5000477;28;45614;-86
2022/01/06 08:15:08;;;;;;;;;26.33;23.67;;;;;;;;5006750;28;45525;-87
2022/01/06 08:17:34;;;;;;;;;27.25;23.00;;;;;;;;5005829;28;45511;-86
2022/01/06 08:19:59;;;;;;;;;18.50;17.25;;;;;;;;5004414;28;47442;-88
2022/01/06 08:22:25;;;;;;;;;25.50;23.00;;;;;;;;5022615;28;45898;-88
2022/01/06 08:24:54;;;;;;;;;24.25;23.25;;;;;;;;5017388;28;45558;-87
2022/01/06 08:27:23;;;;;;;;;22.50;21.00;;;;;;;;4979943;28;45221;-89
2022/01/06 08:29:49;;;;;;;;;26.25;24.00;;;;;;;;4978166;28;48174;-87
2022/01/06 08:32:14;;;;;;;;;29.25;27.00;;;;;;;;4996544;28;45248;-87
2022/01/06 08:34:39;;;;;;;;;24.67;22.33;;;;;;;;4985523;28;45486;-88
2022/01/06 08:37:05;;;;;;;;;30.00;28.00;;;;;;;;4990875;28;45427;-88
2022/01/06 08:39:30;;;;;;;;;24.67;22.00;;;;;;;;5004732;28;48041;-89
2022/01/06 08:41:55;;;;;;;;;21.33;21.00;;;;;;;;5009906;28;45579;-89
2022/01/06 08:44:21;;;;;;;;;23.33;22.00;;;;;;;;5008625;28;45446;-88
2022/01/06 08:46:47;;;;;;;;;22.00;18.50;;;;;;;;5009941;28;45236;-87
2022/01/06 08:49:13;;;;;;;;;29.50;25.75;;;;;;;;5006657;28;47426;-87
2022/01/06 08:51:42;;;;;;;;;25.75;23.50;;;;;;;;5011434;28;45934;-87
2022/01/06 08:54:07;;;;;;;;;24.25;24.00;;;;;;;;5003269;28;45324;-86
2022/01/06 08:56:36;;;;;;;;;39.00;37.00;;;;;;;;5016509;28;45640;-87
2022/01/06 08:59:01;;;;;;;;;37.50;33.50;;;;;;;;4998454;28;47247;-88
2022/01/06 09:01:27;;;;;;;;;24.25;22.00;;;;;;;;4998221;28;45216;-88
2022/01/06 09:03:52;;;;;;;;;22.50;21.50;;;;;;;;5010056;28;45506;-87
2022/01/06 09:06:17;;;;;;;;;36.00;34.67;;;;;;;;5000792;28;45612;-86
2022/01/06 09:08:42;;;;;;;;;34.33;30.33;;;;;;;;5012484;28;47187;-89
2022/01/06 09:11:08;;;;;;;;;28.67;27.33;;;;;;;;4987297;28;45261;-83
2022/01/06 09:13:33;;;;;;;;;22.25;21.75;;;;;;;;5011098;28;45508;-81
2022/01/06 09:15:59;;;;;;;;;25.00;20.67;;;;;;;;5041843;28;45272;-84
2022/01/06 09:18:24;;;;;;;;;22.50;22.00;;;;;;;;5030814;28;47005;-81
2022/01/06 09:20:50;;;;;;;;;26.00;23.00;;;;;;;;5005415;28;45284;-82
2022/01/06 09:23:15;;;;;;;;;26.33;22.33;;;;;;;;5023639;28;45258;-82
2022/01/06 09:25:40;;;;;;;;;27.75;26.25;;;;;;;;5025855;28;45233;-86
2022/01/06 09:28:05;;;;;;;;;22.00;21.33;;;;;;;;5006475;28;47660;-85
2022/01/06 09:30:31;;;;;;;;;30.00;26.67;;;;;;;;5016158;28;45575;-86
2022/01/06 09:32:56;;;;;;;;;26.00;23.33;;;;;;;;5001098;28;45377;-87
2022/01/06 09:35:45;;;;;;;;;24.33;23.00;;;;;;;;5001183;28;45416;-91
2022/01/06 09:38:11;;;;;;;;;20.25;20.25;;;;;;;;4997492;28;48006;-90
2022/01/06 09:40:38;;;;;;;;;25.00;21.75;;;;;;;;5005884;28;45732;-91
2022/01/06 09:43:03;;;;;;;;;18.75;15.50;;;;;;;;5002013;28;45357;-91
2022/01/06 09:45:29;;;;;;;;;18.75;18.50;;;;;;;;4996314;28;45196;-90
2022/01/06 09:47:54;;;;;;;;;19.50;16.75;;;;;;;;4996481;28;47162;-90
2022/01/06 09:50:22;;;;;;;;;18.33;18.33;;;;;;;;5003403;28;45133;-90
2022/01/06 09:52:47;;;;;;;;;20.25;19.25;;;;;;;;4995666;28;45512;-90
2022/01/06 09:55:17;;;;;;;;;21.00;15.67;;;;;;;;4992660;28;45399;-89
2022/01/06 09:57:56;;;;;;;;;20.75;19.25;;;;;;;;5004748;28;47117;-91
2022/01/06 10:00:21;;;;;;;;;21.75;20.75;;;;;;;;5003672;28;45215;-90
2022/01/06 10:02:51;;;;;;;;;20.50;18.25;;;;;;;;5002738;28;45486;-91
2022/01/06 10:05:19;;;;;;;;;27.25;22.25;;;;;;;;4974556;28;45502;-89
2022/01/06 10:07:44;;;;;;;;;24.75;21.75;;;;;;;;4971832;28;48003;-91
2022/01/06 10:10:11;;;;;;;;;22.25;22.00;;;;;;;;4975072;28;45357;-90
2022/01/06 10:12:39;;;;;;;;;20.50;18.75;;;;;;;;4981893;28;45495;-90
2022/01/06 10:15:14;;;;;;;;;22.00;20.50;;;;;;;;4991351;28;45660;-91
2022/01/06 10:17:40;;;;;;;;;20.00;18.25;;;;;;;;4998577;28;47226;-91
2022/01/06 10:20:12;;;;;;;;;20.50;20.50;;;;;;;;4995168;28;45503;-90
2022/01/06 10:22:51;;;;;;;;;22.00;21.25;;;;;;;;4998059;28;45274;-91
2022/01/06 10:25:17;;;;;;;;;21.25;19.75;;;;;;;;5015131;28;45077;-91
2022/01/06 10:27:44;;;;;;;;;19.75;19.00;;;;;;;;5001432;28;47500;-91
2022/01/06 10:30:10;;;;;;;;;24.00;21.75;;;;;;;;5003914;28;45448;-91
2022/01/06 10:32:49;;;;;;;;;23.75;20.25;;;;;;;;5008666;28;45310;-91
2022/01/06 10:35:26;;;;;;;;;21.25;19.00;;;;;;;;5006602;28;45262;-89
2022/01/06 10:38:00;;;;;;;;;22.25;20.25;;;;;;;;4999705;28;46433;-92
2022/01/06 10:40:39;;;;;;;;;20.50;18.50;;;;;;;;5001685;28;45075;-92
2022/01/06 10:43:20;;;;;;;;;22.00;21.25;;;;;;;;4998881;28;45465;-91
2022/01/06 10:46:04;;;;;;;;;17.00;15.25;;;;;;;;4999252;28;45234;-91
2022/01/06 10:48:36;;;;;;;;;20.75;19.75;;;;;;;;4993168;28;47069;-92
2022/01/06 10:51:14;;;;;;;;;;;;;;;;;;;;;
2022/01/06 10:53:56;;;;;;;;;21.75;16.75;;;;;;;;5003018;28;68518;-92
2022/01/06 10:56:36;;;;;;;;;14.50;13.50;;;;;;;;5007314;28;45172;-92
2022/01/06 10:59:06;;;;;;;;;15.75;15.75;;;;;;;;5000463;28;47297;-91
2022/01/06 11:01:37;;;;;;;;;15.50;14.75;;;;;;;;5004865;28;45789;-92
2022/01/06 11:04:08;;;;;;;;;16.25;14.75;;;;;;;;5005447;28;45295;-91
2022/01/06 11:06:46;;;;;;;;;11.50;11.50;;;;;;;;5009654;28;45262;-91
2022/01/06 11:09:12;;;;;;;;;14.00;12.50;;;;;;;;5006984;28;47196;-84
2022/01/06 11:14:23;;;;;;;;;17.50;16.25;;;;;;;;5005976;28;45433;-90
2022/01/06 11:16:48;;;;;;;;;16.00;16.00;;;;;;;;5008018;28;45491;-89
2022/01/06 11:19:14;;;;;;;;;20.67;20.00;;;;;;;;5010457;28;47231;-89
2022/01/06 11:21:41;;;;;;;;;16.33;15.00;;;;;;;;5013623;28;45120;-91
2022/01/06 11:24:12;;;;;;;;;26.75;21.50;;;;;;;;5009673;28;45405;-90
2022/01/06 11:26:37;;;;;;;;;23.75;23.50;;;;;;;;5008830;28;45033;-90
2022/01/06 11:29:02;;;;;;;;;20.50;20.00;;;;;;;;4997195;28;48084;-90
2022/01/06 11:31:34;;;;;;;;;19.00;16.67;;;;;;;;5007983;28;45227;-91
2022/01/06 11:34:09;;;;;;;;;15.25;15.25;;;;;;;;5006852;28;45445;-90
2022/01/06 11:36:35;;;;;;;;;18.00;16.00;;;;;;;;4994245;28;45336;-89
2022/01/06 11:39:05;;;;;;;;;15.50;15.50;;;;;;;;5004721;28;47536;-90
2022/01/06 11:41:35;;;;;;;;;13.75;13.50;;;;;;;;4996024;28;45693;-90
2022/01/06 11:44:02;;;;;;;;;15.75;14.25;;;;;;;;5007248;28;45192;-90
2022/01/06 11:46:27;;;;;;;;;14.50;13.25;;;;;;;;5007233;28;45264;-90
2022/01/06 11:48:58;;;;;;;;;16.00;12.50;;;;;;;;5008564;28;47832;-89
2022/01/06 11:51:24;;;;;;;;;16.50;16.25;;;;;;;;5007163;28;45353;-88
2022/01/06 11:53:50;;;;;;;;;12.75;12.50;;;;;;;;4999586;28;45118;-88
2022/01/06 11:56:15;;;;;;;;;15.67;14.33;;;;;;;;5003650;28;45468;-90
2022/01/06 11:58:40;;;;;;;;;8.75;8.00;;;;;;;;5008098;28;47206;-90
2022/01/06 12:01:14;;;;;;;;;8.00;8.00;;;;;;;;5008414;28;45198;-91
2022/01/06 12:03:39;;;;;;;;;10.50;9.00;;;;;;;;5008355;28;45380;-88
2022/01/06 12:06:06;;;;;;;;;13.67;13.33;;;;;;;;4993655;28;45686;-89
2022/01/06 12:08:42;;;;;;;;;10.50;10.50;;;;;;;;4988798;28;47332;-90
2022/01/06 12:11:21;;;;;;;;;14.25;13.25;;;;;;;;4984674;28;45867;-91
2022/01/06 12:13:47;;;;;;;;;18.25;14.00;;;;;;;;4991415;28;45460;-90
2022/01/06 12:16:25;;;;;;;;;13.25;12.50;;;;;;;;4998104;28;45512;-90
2022/01/06 12:18:50;;;;;;;;;12.25;12.00;;;;;;;;4985605;28;47403;-89
2022/01/06 12:21:15;;;;;;;;;15.75;13.00;;;;;;;;4985472;28;45443;-89
2022/01/06 12:23:41;;;;;;;;;16.00;14.67;;;;;;;;4989563;28;45488;-88
2022/01/06 12:26:11;;;;;;;;;20.00;20.00;;;;;;;;4989404;28;45468;-89
2022/01/06 12:29:00;;;;;;;;;12.00;11.00;;;;;;;;4990304;28;48046;-91
2022/01/06 12:31:26;;;;;;;;;10.75;9.75;;;;;;;;4990172;28;45578;-91
2022/01/06 12:33:59;;;;;;;;;9.75;9.00;;;;;;;;4989784;28;45855;-91
2022/01/06 12:36:28;;;;;;;;;8.75;8.75;;;;;;;;4990684;28;45540;-92
2022/01/06 12:42:15;;;;;;;;;13.00;12.25;;;;;;;;4956354;28;45385;-92
2022/01/06 12:45:17;;;;;;;;;;;;;;;;;;;;;
2022/01/06 12:48:12;;;;;;;;;18.00;14.25;;;;;;;;4974137;28;70130;-93
2022/01/06 12:51:10;;;;;;;;;12.75;9.50;;;;;;;;4983281;28;46824;-92
2022/01/06 12:53:48;;;;;;;;;9.00;7.75;;;;;;;;4976919;28;45649;-93
2022/01/06 13:00:02;;;;;;;;;;;;;;;;;;;;;
2022/01/06 13:03:21;;;;;;;;;;;;;;;;;;;;;
2022/01/06 13:06:47;;;;;;;;;;;;;;;;;;;;;
2022/01/06 13:09:16;;;;;;;;;7.75;7.00;;;;;;;;5004942;28;45329;-91
2022/01/06 13:11:50;;;;;;;;;9.00;9.00;;;;;;;;5005112;28;45304;-92
2022/01/06 13:14:27;;;;;;;;;9.00;8.75;;;;;;;;5001585;28;46829;-93
2022/01/06 13:17:04;;;;;;;;;13.50;11.50;;;;;;;;4998879;28;45729;-93
2022/01/06 13:19:38;;;;;;;;;13.00;11.25;;;;;;;;4974645;28;45616;-92
2022/01/06 13:22:05;;;;;;;;;13.00;11.00;;;;;;;;4986531;28;45142;-94
2022/01/06 13:24:32;;;;;;;;;13.75;11.00;;;;;;;;4985309;28;47576;-93
2022/01/06 13:27:13;;;;;;;;;9.50;9.00;;;;;;;;4986879;28;45482;-93
2022/01/06 13:29:50;;;;;;;;;16.25;15.50;;;;;;;;4987542;28;45130;-92
2022/01/06 13:32:20;;;;;;;;;9.75;7.50;;;;;;;;4999780;28;45169;-91
2022/01/06 13:34:47;;;;;;;;;12.00;10.50;;;;;;;;5006645;28;47405;-92
2022/01/06 13:37:19;;;;;;;;;9.50;9.00;;;;;;;;4992598;28;46146;-93
2022/01/06 13:39:48;;;;;;;;;11.00;9.50;;;;;;;;4993799;28;45585;-92
2022/01/06 13:42:46;;;;;;;;;9.50;9.00;;;;;;;;4982987;28;45519;-94
2022/01/06 13:45:47;;;;;;;;;;;;;;;;;;;;;
2022/01/06 13:48:40;;;;;;;;;15.75;14.00;;;;;;;;4983760;28;72808;-92
2022/01/06 13:51:12;;;;;;;;;10.00;10.00;;;;;;;;4997445;28;45400;-93
2022/01/06 13:53:46;;;;;;;;;8.25;8.00;;;;;;;;4985391;28;45773;-93
2022/01/06 13:56:34;;;;;;;;;9.00;9.00;;;;;;;;4977362;28;47299;-94
2022/01/06 13:59:17;;;;;;;;;8.75;7.75;;;;;;;;4984340;28;45597;-91
2022/01/06 14:01:51;;;;;;;;;7.75;7.00;;;;;;;;4995446;28;44949;-92
2022/01/06 14:04:29;;;;;;;;;7.00;6.50;;;;;;;;4979590;28;45692;-90
2022/01/06 14:06:58;;;;;;;;;6.00;6.00;;;;;;;;4985830;28;47470;-94
2022/01/06 14:09:47;;;;;;;;;4.00;3.25;;;;;;;;4988596;28;45670;-93
2022/01/06 14:12:18;;;;;;;;;5.25;3.75;;;;;;;;4990299;28;45397;-92
2022/01/06 14:14:44;;;;;;;;;5.25;5.00;;;;;;;;4996426;28;45651;-90
2022/01/06 14:17:09;;;;;;;;;9.50;6.50;;;;;;;;4986224;28;47817;-91
2022/01/06 14:19:38;;;;;;;;;5.75;5.75;;;;;;;;4986176;28;45802;-92
2022/01/06 14:22:04;;;;;;;;;5.50;5.00;;;;;;;;4985992;28;45861;-93
2022/01/06 14:24:33;;;;;;;;;3.50;3.50;;;;;;;;4989193;28;46529;-93
2022/01/06 14:26:59;;;;;;;;;2.75;2.50;;;;;;;;4990683;28;47984;-91
2022/01/06 14:29:25;;;;;;;;;3.75;3.75;;;;;;;;4984326;28;45487;-92
2022/01/06 14:31:54;;;;;;;;;2.00;2.00;;;;;;;;4992657;28;45908;-93
2022/01/06 14:34:19;;;;;;;;;2.25;2.25;;;;;;;;4996080;28;45792;-94
2022/01/06 14:36:47;;;;;;;;;4.67;3.00;;;;;;;;4996048;28;47584;-91
2022/01/06 14:39:12;;;;;;;;;4.00;4.00;;;;;;;;4982458;28;45987;-92
2022/01/06 14:41:40;;;;;;;;;3.50;3.00;;;;;;;;4981205;28;45570;-91
2022/01/06 14:44:05;;;;;;;;;2.50;2.25;;;;;;;;4994494;28;45519;-95
2022/01/06 14:46:30;;;;;;;;;4.00;3.00;;;;;;;;4996232;28;47117;-95
2022/01/06 14:48:56;;;;;;;;;2.33;1.67;;;;;;;;4996180;28;45386;-91
2022/01/06 14:51:23;;;;;;;;;6.00;3.33;;;;;;;;4993084;28;45721;-92
2022/01/06 14:53:48;;;;;;;;;2.50;2.00;;;;;;;;4989240;28;45312;-91